createdAt,value
2022-12-25T00:00:26.941Z,1.10
2022-12-25T00:03:17.973Z,1.10
2022-12-25T00:06:08.373Z,1.00
2022-12-25T00:08:57.874Z,1.00
2022-12-25T00:11:47.520Z,1.10
2022-12-25T00:14:37.114Z,1.10
2022-12-25T00:17:26.624Z,1.10
2022-12-25T00:20:17.585Z,1.10
2022-12-25T00:23:07.341Z,1.20
2022-12-25T00:25:57.457Z,1.20
2022-12-25T00:28:47.397Z,1.10
2022-12-25T00:31:36.984Z,1.10
2022-12-25T00:34:26.566Z,1.10
2022-12-25T00:37:17.533Z,1.20
2022-12-25T00:40:08.218Z,1.10
2022-12-25T00:42:57.881Z,1.10
2022-12-25T00:45:55.535Z,1.10
2022-12-25T00:48:49.345Z,1.20
2022-12-25T00:51:39.019Z,1.10
2022-12-25T00:54:30.066Z,1.20
2022-12-25T00:57:20.113Z,1.20
2022-12-25T01:00:11.580Z,1.20
2022-12-25T01:03:01.182Z,1.30
2022-12-25T01:05:58.175Z,1.20
2022-12-25T01:09:01.301Z,1.20
2022-12-25T01:11:52.263Z,1.30
2022-12-25T01:14:41.925Z,1.30
2022-12-25T01:17:31.333Z,1.30
2022-12-25T01:20:21.130Z,1.30
2022-12-25T01:23:10.653Z,1.30
2022-12-25T01:26:05.819Z,1.40
2022-12-25T01:28:56.938Z,1.40
2022-12-25T01:31:46.616Z,1.50
2022-12-25T01:34:36.824Z,1.50
2022-12-25T01:37:26.385Z,1.60
2022-12-25T01:40:16.028Z,1.60
2022-12-25T01:43:05.528Z,1.60
2022-12-25T01:45:56.809Z,1.60
2022-12-25T01:48:46.342Z,1.60
2022-12-25T01:51:40.562Z,1.60
2022-12-25T01:54:32.159Z,1.70
2022-12-25T01:57:24.637Z,1.70
2022-12-25T02:00:16.785Z,1.70
2022-12-25T02:03:09.304Z,1.60
2022-12-25T02:05:58.898Z,1.70
2022-12-25T02:08:48.526Z,1.70
2022-12-25T02:11:55.383Z,1.70
2022-12-25T02:14:44.870Z,1.60
2022-12-25T02:17:40.217Z,1.60
2022-12-25T02:20:54.773Z,1.60
2022-12-25T02:24:18.316Z,1.60
2022-12-25T02:27:17.495Z,1.70
2022-12-25T02:30:10.397Z,1.60
2022-12-25T02:33:16.643Z,1.60
2022-12-25T02:36:11.101Z,1.60
2022-12-25T02:39:20.816Z,1.60
2022-12-25T02:42:16.469Z,1.70
2022-12-25T02:45:25.509Z,1.60
2022-12-25T02:48:33.780Z,1.70
2022-12-25T02:51:43.239Z,1.60
2022-12-25T02:54:53.128Z,1.60
2022-12-25T02:58:04.786Z,1.60
2022-12-25T03:01:17.760Z,1.60
2022-12-25T03:04:28.731Z,1.60
2022-12-25T03:07:22.642Z,1.50
2022-12-25T03:10:33.097Z,1.60
2022-12-25T03:13:26.194Z,1.60
2022-12-25T03:16:34.221Z,1.60
2022-12-25T03:19:43.515Z,1.70
2022-12-25T03:22:51.728Z,1.60
2022-12-25T03:25:58.237Z,1.60
2022-12-25T03:28:47.535Z,1.60
2022-12-25T03:31:47.451Z,1.60
2022-12-25T03:35:01.678Z,1.50
2022-12-25T03:38:28.893Z,1.60
2022-12-25T03:41:44.468Z,1.60
2022-12-25T03:44:55.000Z,1.70
2022-12-25T03:48:06.225Z,1.60
2022-12-25T03:51:15.920Z,1.70
2022-12-25T03:54:26.985Z,1.70
2022-12-25T03:57:34.008Z,1.80
2022-12-25T04:00:40.602Z,1.70
2022-12-25T04:03:48.717Z,1.70
2022-12-25T04:06:55.468Z,1.70
2022-12-25T04:10:02.002Z,1.70
2022-12-25T04:13:08.558Z,1.70
2022-12-25T04:16:15.174Z,1.70
2022-12-25T04:19:23.570Z,1.60
2022-12-25T04:22:30.044Z,1.60
2022-12-25T04:25:36.585Z,1.60
2022-12-25T04:28:43.342Z,1.70
2022-12-25T04:31:49.910Z,1.70
2022-12-25T04:34:58.184Z,1.70
2022-12-25T04:37:48.581Z,1.60
2022-12-25T04:40:38.059Z,1.70
2022-12-25T04:43:27.419Z,1.70
2022-12-25T04:46:16.755Z,1.70
2022-12-25T04:49:06.098Z,1.70
2022-12-25T04:51:56.865Z,1.70
2022-12-25T04:54:46.088Z,1.70
2022-12-25T04:57:35.659Z,1.70
2022-12-25T05:00:25.228Z,1.60
2022-12-25T05:03:14.715Z,1.70
2022-12-25T05:06:04.995Z,1.70
2022-12-25T05:08:55.671Z,1.70
2022-12-25T05:11:45.030Z,1.70
2022-12-25T05:14:34.358Z,1.70
2022-12-25T05:17:23.716Z,1.70
2022-12-25T05:20:13.196Z,1.70
2022-12-25T05:23:02.555Z,1.70
2022-12-25T05:25:53.397Z,1.70
2022-12-25T05:28:42.978Z,1.70
2022-12-25T05:31:33.096Z,1.70
2022-12-25T05:34:22.416Z,1.70
2022-12-25T05:37:11.913Z,1.70
2022-12-25T05:40:01.178Z,1.70
2022-12-25T05:42:51.943Z,1.80
2022-12-25T05:45:41.259Z,1.70
2022-12-25T05:48:30.576Z,1.70
2022-12-25T05:51:19.935Z,1.70
2022-12-25T05:54:09.252Z,1.80
2022-12-25T05:56:58.968Z,1.80
2022-12-25T05:59:49.742Z,1.70
2022-12-25T06:02:39.555Z,1.70
2022-12-25T06:05:29.195Z,1.70
2022-12-25T06:08:18.786Z,1.70
2022-12-25T06:11:09.858Z,1.70
2022-12-25T06:13:59.393Z,1.70
2022-12-25T06:16:53.370Z,1.70
2022-12-25T06:19:44.649Z,1.80
2022-12-25T06:22:34.853Z,1.80
2022-12-25T06:25:24.376Z,1.70
2022-12-25T06:28:13.748Z,1.70
2022-12-25T06:31:08.020Z,1.80
2022-12-25T06:33:58.924Z,1.80
2022-12-25T06:36:48.226Z,1.90
2022-12-25T06:39:37.595Z,1.90
2022-12-25T06:42:27.103Z,1.90
2022-12-25T06:45:16.515Z,1.90
2022-12-25T06:48:06.056Z,1.90
2022-12-25T06:50:56.897Z,1.90
2022-12-25T06:53:46.231Z,1.90
2022-12-25T06:56:35.705Z,2.00
2022-12-25T06:59:25.702Z,2.00
2022-12-25T07:02:19.951Z,2.00
2022-12-25T07:05:09.935Z,1.90
2022-12-25T07:08:00.722Z,1.90
2022-12-25T07:10:50.153Z,1.90
2022-12-25T07:13:39.871Z,1.90
2022-12-25T07:16:29.275Z,2.00
2022-12-25T07:19:19.584Z,2.10
2022-12-25T07:22:09.175Z,2.00
2022-12-25T07:25:00.063Z,2.10
2022-12-25T07:27:49.377Z,2.10
2022-12-25T07:30:39.767Z,2.10
2022-12-25T07:33:29.087Z,2.20
2022-12-25T07:36:18.449Z,2.20
2022-12-25T07:39:08.109Z,2.20
2022-12-25T07:41:58.863Z,2.20
2022-12-25T07:44:48.429Z,2.20
2022-12-25T07:47:37.756Z,2.30
2022-12-25T07:50:27.157Z,2.30
2022-12-25T07:53:16.506Z,2.40
2022-12-25T07:56:07.847Z,2.40
2022-12-25T07:58:59.015Z,2.40
2022-12-25T08:01:50.813Z,2.50
2022-12-25T08:04:40.440Z,2.50
2022-12-25T08:07:29.709Z,2.60
2022-12-25T08:10:19.227Z,2.50
2022-12-25T08:13:14.220Z,2.50
2022-12-25T08:16:08.332Z,2.60
2022-12-25T08:18:57.682Z,2.50
2022-12-25T08:21:47.056Z,2.60
2022-12-25T08:24:36.383Z,2.60
2022-12-25T08:27:26.202Z,2.70
2022-12-25T08:30:16.037Z,2.70
2022-12-25T08:33:06.908Z,2.80
2022-12-25T08:35:57.369Z,2.80
2022-12-25T08:38:47.098Z,2.90
2022-12-25T08:41:37.365Z,3.00
2022-12-25T08:44:26.668Z,3.10
2022-12-25T08:47:16.062Z,3.20
2022-12-25T08:50:08.653Z,3.30
2022-12-25T08:52:58.091Z,3.40
2022-12-25T08:55:47.923Z,3.50
2022-12-25T08:58:37.821Z,3.40
2022-12-25T09:01:27.350Z,3.40
2022-12-25T09:04:16.760Z,3.30
2022-12-25T09:07:07.566Z,3.50
2022-12-25T09:09:56.994Z,3.50
2022-12-25T09:12:46.387Z,3.50
2022-12-25T09:15:35.817Z,3.60
2022-12-25T09:18:25.320Z,3.60
2022-12-25T09:21:16.155Z,3.60
2022-12-25T09:24:07.351Z,3.50
2022-12-25T09:26:56.748Z,3.50
2022-12-25T09:29:46.100Z,3.60
2022-12-25T09:32:36.813Z,3.70
2022-12-25T09:35:33.448Z,3.70
2022-12-25T09:38:30.087Z,3.70
2022-12-25T09:41:36.767Z,3.80
2022-12-25T09:44:30.788Z,3.90
2022-12-25T09:47:24.773Z,3.70
2022-12-25T09:50:18.224Z,3.80
2022-12-25T09:53:11.786Z,3.90
2022-12-25T09:56:07.393Z,3.60
2022-12-25T09:58:58.299Z,3.80
2022-12-25T10:02:00.282Z,4.00
2022-12-25T10:05:22.938Z,4.10
2022-12-25T10:08:27.115Z,4.30
2022-12-25T10:11:30.551Z,4.30
2022-12-25T10:14:29.666Z,4.40
2022-12-25T10:17:36.163Z,4.30
2022-12-25T10:20:41.161Z,4.40
2022-12-25T10:23:32.753Z,4.30
2022-12-25T10:26:25.585Z,4.20
2022-12-25T10:29:16.796Z,4.20
2022-12-25T10:32:07.914Z,4.20
2022-12-25T10:34:57.564Z,4.10
2022-12-25T10:37:50.933Z,4.10
2022-12-25T10:40:53.363Z,4.20
2022-12-25T10:43:49.184Z,4.10
2022-12-25T10:46:38.694Z,4.10
2022-12-25T10:49:33.318Z,4.10
2022-12-25T10:52:24.846Z,3.90
2022-12-25T10:55:26.551Z,4.10
2022-12-25T10:58:22.274Z,4.00
2022-12-25T11:01:12.678Z,4.00
2022-12-25T11:04:02.069Z,3.90
2022-12-25T11:07:09.563Z,3.80
2022-12-25T11:10:05.564Z,3.90
2022-12-25T11:12:56.073Z,3.90
2022-12-25T11:15:47.767Z,3.80
2022-12-25T11:18:47.655Z,3.70
2022-12-25T11:21:40.430Z,3.70
2022-12-25T11:24:35.591Z,3.70
2022-12-25T11:27:28.224Z,3.70
2022-12-25T11:30:18.083Z,3.70
2022-12-25T11:33:12.812Z,3.60
2022-12-25T11:36:05.762Z,3.70
2022-12-25T11:38:55.065Z,3.60
2022-12-25T11:41:47.236Z,3.70
2022-12-25T11:44:45.760Z,3.70
2022-12-25T11:47:39.778Z,3.70
2022-12-25T11:50:32.433Z,3.60
2022-12-25T11:53:27.095Z,3.70
2022-12-25T11:56:20.161Z,3.80
2022-12-25T11:59:18.707Z,3.90
2022-12-25T12:02:25.735Z,3.80
2022-12-25T12:05:21.585Z,3.70
2022-12-25T12:08:11.926Z,3.80
2022-12-25T12:11:18.753Z,3.80
2022-12-25T12:14:37.972Z,3.80
2022-12-25T12:17:27.376Z,3.70
2022-12-25T12:20:32.788Z,3.80
2022-12-25T12:23:22.154Z,3.80
2022-12-25T12:26:20.582Z,3.80
2022-12-25T12:29:25.149Z,3.80
2022-12-25T12:32:37.259Z,3.70
2022-12-25T12:35:29.500Z,3.60
2022-12-25T12:38:21.682Z,3.50
2022-12-25T12:41:14.245Z,3.50
2022-12-25T12:44:07.233Z,3.50
2022-12-25T12:46:59.255Z,3.40
2022-12-25T12:50:00.298Z,3.40
2022-12-25T12:52:49.905Z,3.20
2022-12-25T12:55:39.333Z,3.20
2022-12-25T12:58:34.638Z,3.20
2022-12-25T13:01:44.130Z,3.30
2022-12-25T13:04:59.693Z,3.30
2022-12-25T13:07:59.582Z,3.20
2022-12-25T13:10:52.187Z,3.30
2022-12-25T13:13:43.739Z,3.20
2022-12-25T13:16:37.212Z,3.20
2022-12-25T13:19:29.275Z,3.20
2022-12-25T13:22:27.853Z,3.20
2022-12-25T13:25:22.052Z,3.10
2022-12-25T13:28:16.353Z,3.20
2022-12-25T13:31:09.101Z,3.10
2022-12-25T13:34:00.986Z,3.00
2022-12-25T13:36:50.908Z,3.00
2022-12-25T13:39:50.143Z,2.90
2022-12-25T13:42:41.038Z,3.00
2022-12-25T13:45:31.929Z,3.00
2022-12-25T13:48:23.675Z,2.90
2022-12-25T13:51:17.949Z,3.00
2022-12-25T13:54:08.211Z,3.00
2022-12-25T13:56:58.978Z,3.00
2022-12-25T13:59:48.450Z,2.90
2022-12-25T14:02:39.641Z,2.90
2022-12-25T14:05:37.944Z,2.90
2022-12-25T14:08:33.731Z,2.80
2022-12-25T14:11:25.460Z,2.80
2022-12-25T14:14:21.290Z,2.80
2022-12-25T14:17:13.021Z,2.80
2022-12-25T14:20:08.241Z,2.80
2022-12-25T14:22:59.830Z,2.80
2022-12-25T14:25:50.368Z,2.80
2022-12-25T14:28:40.264Z,2.90
2022-12-25T14:31:31.703Z,2.80
2022-12-25T14:34:24.419Z,2.80
2022-12-25T14:37:19.105Z,2.80
2022-12-25T14:40:26.188Z,2.90
2022-12-25T14:43:26.793Z,2.80
2022-12-25T14:46:25.508Z,2.90
2022-12-25T14:49:26.185Z,2.80
2022-12-25T14:52:20.387Z,2.80
2022-12-25T14:55:20.254Z,2.80
2022-12-25T14:58:20.208Z,2.70
2022-12-25T15:01:09.803Z,2.80
2022-12-25T15:04:16.181Z,2.80
2022-12-25T15:07:10.017Z,2.70
2022-12-25T15:10:36.759Z,2.70
2022-12-25T15:13:09.700Z,2.70
2022-12-25T15:16:03.508Z,2.70
2022-12-25T15:18:54.091Z,2.70
2022-12-25T15:21:44.786Z,2.70
2022-12-25T15:24:35.731Z,2.70
2022-12-25T15:27:25.368Z,2.80
2022-12-25T15:30:15.676Z,2.70
2022-12-25T15:33:04.994Z,2.70
2022-12-25T15:35:54.506Z,2.80
2022-12-25T15:38:43.964Z,2.80
2022-12-25T15:41:55.435Z,2.70
2022-12-25T15:44:45.591Z,2.70
2022-12-25T15:47:35.036Z,2.70
2022-12-25T15:50:24.716Z,2.80
2022-12-25T15:53:14.517Z,2.80
2022-12-25T15:56:03.926Z,2.70
2022-12-25T15:58:54.817Z,2.80
2022-12-25T16:01:47.596Z,2.80
2022-12-25T16:04:36.997Z,2.70
2022-12-25T16:07:27.959Z,2.70
2022-12-25T16:10:20.361Z,2.70
2022-12-25T16:13:09.729Z,2.70
2022-12-25T16:16:00.729Z,2.60
2022-12-25T16:18:50.156Z,2.60
2022-12-25T16:21:42.743Z,2.60
2022-12-25T16:24:32.070Z,2.60
2022-12-25T16:27:21.539Z,2.60
2022-12-25T16:30:13.233Z,2.70
2022-12-25T16:33:04.504Z,2.70
2022-12-25T16:35:53.935Z,2.70
2022-12-25T16:38:43.294Z,2.70
2022-12-25T16:41:37.880Z,2.70
2022-12-25T16:44:27.387Z,2.70
2022-12-25T16:47:16.734Z,2.70
2022-12-25T16:50:09.693Z,2.70
2022-12-25T16:52:58.968Z,2.80
2022-12-25T16:55:48.360Z,2.70
2022-12-25T16:58:37.901Z,2.80
2022-12-25T17:01:27.854Z,2.70
2022-12-25T17:04:17.329Z,2.80
2022-12-25T17:07:08.174Z,2.70
2022-12-25T17:09:57.654Z,2.70
2022-12-25T17:12:47.081Z,2.70
2022-12-25T17:15:36.532Z,2.60
2022-12-25T17:18:26.151Z,2.70
2022-12-25T17:21:16.181Z,2.60
2022-12-25T17:24:07.797Z,2.60
2022-12-25T17:26:57.145Z,2.70
2022-12-25T17:29:47.673Z,2.70
2022-12-25T17:32:37.032Z,2.80
2022-12-25T17:35:26.500Z,2.70
2022-12-25T17:38:15.820Z,2.70
2022-12-25T17:41:08.875Z,2.80
2022-12-25T17:43:58.183Z,2.70
2022-12-25T17:46:47.672Z,2.70
2022-12-25T17:49:37.500Z,2.70
2022-12-25T17:52:27.035Z,2.70
2022-12-25T17:55:16.319Z,2.70
2022-12-25T17:58:07.271Z,2.70
2022-12-25T18:00:57.069Z,2.60
2022-12-25T18:03:47.533Z,2.70
2022-12-25T18:06:37.903Z,2.70
2022-12-25T18:09:27.348Z,2.70
2022-12-25T18:12:16.766Z,2.70
2022-12-25T18:15:08.747Z,2.70
2022-12-25T18:17:58.039Z,2.70
2022-12-25T18:20:47.588Z,2.70
2022-12-25T18:23:37.607Z,2.70
2022-12-25T18:26:29.111Z,2.70
2022-12-25T18:29:18.458Z,2.70
2022-12-25T18:32:09.457Z,2.70
2022-12-25T18:34:58.780Z,2.60
2022-12-25T18:37:48.621Z,2.60
2022-12-25T18:40:42.807Z,2.60
2022-12-25T18:43:52.840Z,2.60
2022-12-25T18:46:43.081Z,2.60
2022-12-25T18:49:34.483Z,2.60
2022-12-25T18:52:48.593Z,2.60
2022-12-25T18:55:33.877Z,2.60
2022-12-25T18:58:23.243Z,2.50
2022-12-25T19:01:14.494Z,2.60
2022-12-25T19:04:06.531Z,2.60
2022-12-25T19:06:57.358Z,2.60
2022-12-25T19:09:47.027Z,2.60
2022-12-25T19:12:36.505Z,2.70
2022-12-25T19:15:26.618Z,2.70
2022-12-25T19:18:16.454Z,2.70
2022-12-25T19:21:06.341Z,2.70
2022-12-25T19:23:57.311Z,2.60
2022-12-25T19:26:46.631Z,2.60
2022-12-25T19:29:36.429Z,2.70
2022-12-25T19:32:26.092Z,2.60
2022-12-25T19:35:15.866Z,2.60
2022-12-25T19:38:05.422Z,2.60
2022-12-25T19:41:02.357Z,2.60
2022-12-25T19:43:53.051Z,2.60
2022-12-25T19:46:43.263Z,2.60
2022-12-25T19:49:32.919Z,2.70
2022-12-25T19:52:22.520Z,2.70
2022-12-25T19:55:11.879Z,2.70
2022-12-25T19:58:02.717Z,2.60
2022-12-25T20:00:59.901Z,2.50
2022-12-25T20:03:50.160Z,2.60
2022-12-25T20:06:43.212Z,2.60
2022-12-25T20:09:33.298Z,2.60
2022-12-25T20:12:23.019Z,2.60
2022-12-25T20:15:14.776Z,2.60
2022-12-25T20:18:04.105Z,2.60
2022-12-25T20:21:01.358Z,2.60
2022-12-25T20:23:52.989Z,2.60
2022-12-25T20:26:47.550Z,2.60
2022-12-25T20:29:37.220Z,2.60
2022-12-25T20:32:28.510Z,2.60
2022-12-25T20:35:18.079Z,2.70
2022-12-25T20:38:07.699Z,2.70
2022-12-25T20:41:26.235Z,2.70
2022-12-25T20:44:11.632Z,2.70
2022-12-25T20:47:01.421Z,2.70
2022-12-25T20:49:52.319Z,2.60
2022-12-25T20:52:41.584Z,2.60
2022-12-25T20:55:31.001Z,2.60
2022-12-25T20:58:20.273Z,2.60
2022-12-25T21:01:13.061Z,2.70
2022-12-25T21:04:02.673Z,2.60
2022-12-25T21:06:53.913Z,2.60
2022-12-25T21:09:43.268Z,2.60
2022-12-25T21:12:32.869Z,2.60
2022-12-25T21:15:22.249Z,2.60
2022-12-25T21:18:11.736Z,2.60
2022-12-25T21:21:05.840Z,2.70
2022-12-25T21:23:57.454Z,2.70
2022-12-25T21:26:48.251Z,2.70
2022-12-25T21:29:38.577Z,2.70
2022-12-25T21:32:45.128Z,2.60
2022-12-25T21:35:37.665Z,2.60
2022-12-25T21:38:27.008Z,2.70
2022-12-25T21:41:18.012Z,2.70
2022-12-25T21:44:07.921Z,2.70
2022-12-25T21:46:57.248Z,2.70
2022-12-25T21:50:03.785Z,2.70
2022-12-25T21:52:53.206Z,2.60
2022-12-25T21:55:42.565Z,2.60
2022-12-25T21:58:33.637Z,2.70
2022-12-25T22:01:23.070Z,2.70
2022-12-25T22:04:13.259Z,2.60
2022-12-25T22:07:19.842Z,2.50
2022-12-25T22:10:09.655Z,2.50
2022-12-25T22:13:31.074Z,2.50
2022-12-25T22:16:39.183Z,2.50
2022-12-25T22:19:48.411Z,2.40
2022-12-25T22:22:37.872Z,2.40
2022-12-25T22:25:27.172Z,2.50
2022-12-25T22:28:16.831Z,2.50
2022-12-25T22:31:06.748Z,2.60
2022-12-25T22:33:58.061Z,2.50
2022-12-25T22:36:47.407Z,2.60
2022-12-25T22:39:37.076Z,2.60
2022-12-25T22:42:26.436Z,2.60
2022-12-25T22:45:16.632Z,2.70
2022-12-25T22:48:06.269Z,2.70
2022-12-25T22:50:57.099Z,2.70
2022-12-25T22:53:46.399Z,2.60
2022-12-25T22:56:35.784Z,2.60
2022-12-25T22:59:25.727Z,2.60
2022-12-25T23:02:15.476Z,2.60
2022-12-25T23:05:05.059Z,2.60
2022-12-25T23:07:55.828Z,2.60
2022-12-25T23:10:45.215Z,2.50
2022-12-25T23:14:00.236Z,2.60
2022-12-25T23:16:49.603Z,2.50
2022-12-25T23:19:56.307Z,2.50
2022-12-25T23:23:03.436Z,2.50
2022-12-25T23:26:09.469Z,2.50
2022-12-25T23:29:16.107Z,2.50
2022-12-25T23:32:06.161Z,2.60
2022-12-25T23:34:56.250Z,2.60
2022-12-25T23:37:47.165Z,2.60
2022-12-25T23:40:36.479Z,2.60
2022-12-25T23:43:27.348Z,2.50
2022-12-25T23:46:16.985Z,2.50
2022-12-25T23:49:06.858Z,2.50
2022-12-25T23:51:56.697Z,2.40
2022-12-25T23:54:46.027Z,2.50
2022-12-25T23:57:35.406Z,2.40
